sensor_id;sensor_type;location;lat;lon;timestamp;P1;durP1;ratioP1;P2;durP2;ratioP2
43626;SDS011;29217;52.586;13.442;2024-03-08T00:02:22;37.95;;;13.63;;
43626;SDS011;29217;52.586;13.442;2024-03-08T00:04:48;40.03;;;14.70;;
43626;SDS011;29217;52.586;13.442;2024-03-08T00:07:15;39.90;;;13.57;;
43626;SDS011;29217;52.586;13.442;2024-03-08T00:09:41;42.83;;;14.38;;
43626;SDS011;29217;52.586;13.442;2024-03-08T00:12:07;36.17;;;14.13;;
43626;SDS011;29217;52.586;13.442;2024-03-08T00:14:33;39.30;;;15.90;;
43626;SDS011;29217;52.586;13.442;2024-03-08T00:17:00;44.20;;;16.02;;
43626;SDS011;29217;52.586;13.442;2024-03-08T00:19:26;46.22;;;15.63;;
43626;SDS011;29217;52.586;13.442;2024-03-08T00:21:52;34.08;;;13.00;;
43626;SDS011;29217;52.586;13.442;2024-03-08T00:24:18;46.38;;;16.13;;
43626;SDS011;29217;52.586;13.442;2024-03-08T00:26:49;44.63;;;15.20;;
43626;SDS011;29217;52.586;13.442;2024-03-08T00:29:15;36.20;;;13.70;;
43626;SDS011;29217;52.586;13.442;2024-03-08T00:31:41;34.10;;;14.05;;
43626;SDS011;29217;52.586;13.442;2024-03-08T00:34:07;36.45;;;13.82;;
43626;SDS011;29217;52.586;13.442;2024-03-08T00:36:35;33.08;;;12.32;;
43626;SDS011;29217;52.586;13.442;2024-03-08T00:39:01;22.33;;;10.20;;
43626;SDS011;29217;52.586;13.442;2024-03-08T00:41:31;29.67;;;12.20;;
43626;SDS011;29217;52.586;13.442;2024-03-08T00:43:57;30.15;;;11.93;;
43626;SDS011;29217;52.586;13.442;2024-03-08T00:46:23;34.03;;;12.68;;
43626;SDS011;29217;52.586;13.442;2024-03-08T00:48:49;26.27;;;10.85;;
43626;SDS011;29217;52.586;13.442;2024-03-08T00:51:15;30.75;;;11.77;;
43626;SDS011;29217;52.586;13.442;2024-03-08T00:53:41;31.90;;;13.05;;
43626;SDS011;29217;52.586;13.442;2024-03-08T00:56:08;34.67;;;12.00;;
43626;SDS011;29217;52.586;13.442;2024-03-08T00:58:37;20.88;;;9.77;;
43626;SDS011;29217;52.586;13.442;2024-03-08T01:01:03;27.10;;;11.50;;
43626;SDS011;29217;52.586;13.442;2024-03-08T01:03:30;31.17;;;11.43;;
43626;SDS011;29217;52.586;13.442;2024-03-08T01:05:56;34.85;;;10.63;;
43626;SDS011;29217;52.586;13.442;2024-03-08T01:08:24;24.77;;;9.85;;
43626;SDS011;29217;52.586;13.442;2024-03-08T01:10:50;20.70;;;9.30;;
43626;SDS011;29217;52.586;13.442;2024-03-08T01:13:16;27.45;;;10.63;;
43626;SDS011;29217;52.586;13.442;2024-03-08T01:15:42;19.88;;;9.98;;
43626;SDS011;29217;52.586;13.442;2024-03-08T01:18:08;20.80;;;10.07;;
43626;SDS011;29217;52.586;13.442;2024-03-08T01:20:35;26.83;;;9.60;;
43626;SDS011;29217;52.586;13.442;2024-03-08T01:23:01;26.00;;;9.95;;
43626;SDS011;29217;52.586;13.442;2024-03-08T01:25:27;25.13;;;9.80;;
43626;SDS011;29217;52.586;13.442;2024-03-08T01:27:53;29.23;;;10.10;;
43626;SDS011;29217;52.586;13.442;2024-03-08T01:30:19;22.55;;;11.30;;
43626;SDS011;29217;52.586;13.442;2024-03-08T01:32:45;23.45;;;10.13;;
43626;SDS011;29217;52.586;13.442;2024-03-08T01:35:11;22.58;;;10.25;;
43626;SDS011;29217;52.586;13.442;2024-03-08T01:37:38;22.60;;;9.55;;
43626;SDS011;29217;52.586;13.442;2024-03-08T01:40:04;23.85;;;9.70;;
43626;SDS011;29217;52.586;13.442;2024-03-08T01:42:30;20.02;;;9.45;;
43626;SDS011;29217;52.586;13.442;2024-03-08T01:44:56;23.30;;;9.88;;
43626;SDS011;29217;52.586;13.442;2024-03-08T01:47:22;25.95;;;11.18;;
43626;SDS011;29217;52.586;13.442;2024-03-08T01:49:51;22.52;;;10.40;;
43626;SDS011;29217;52.586;13.442;2024-03-08T01:52:17;29.38;;;10.52;;
43626;SDS011;29217;52.586;13.442;2024-03-08T01:54:45;25.17;;;10.57;;
43626;SDS011;29217;52.586;13.442;2024-03-08T01:57:11;26.48;;;11.10;;
43626;SDS011;29217;52.586;13.442;2024-03-08T01:59:38;22.83;;;10.63;;
43626;SDS011;29217;52.586;13.442;2024-03-08T02:02:06;24.05;;;9.23;;
43626;SDS011;29217;52.586;13.442;2024-03-08T02:04:33;23.50;;;9.85;;
43626;SDS011;29217;52.586;13.442;2024-03-08T02:07:01;21.90;;;9.45;;
43626;SDS011;29217;52.586;13.442;2024-03-08T02:09:30;25.08;;;10.88;;
43626;SDS011;29217;52.586;13.442;2024-03-08T02:11:56;23.15;;;10.00;;
43626;SDS011;29217;52.586;13.442;2024-03-08T02:14:22;36.53;;;12.70;;
43626;SDS011;29217;52.586;13.442;2024-03-08T02:16:48;65.60;;;20.63;;
43626;SDS011;29217;52.586;13.442;2024-03-08T02:19:16;61.47;;;20.23;;
43626;SDS011;29217;52.586;13.442;2024-03-08T02:21:42;54.95;;;17.60;;
43626;SDS011;29217;52.586;13.442;2024-03-08T02:24:11;55.10;;;16.98;;
43626;SDS011;29217;52.586;13.442;2024-03-08T02:26:37;41.40;;;15.88;;
43626;SDS011;29217;52.586;13.442;2024-03-08T02:29:04;31.83;;;14.35;;
43626;SDS011;29217;52.586;13.442;2024-03-08T02:31:30;32.50;;;13.45;;
43626;SDS011;29217;52.586;13.442;2024-03-08T02:33:56;43.90;;;14.80;;
43626;SDS011;29217;52.586;13.442;2024-03-08T02:36:22;38.40;;;13.23;;
43626;SDS011;29217;52.586;13.442;2024-03-08T02:38:48;38.70;;;14.18;;
43626;SDS011;29217;52.586;13.442;2024-03-08T02:41:14;38.95;;;12.27;;
43626;SDS011;29217;52.586;13.442;2024-03-08T02:43:40;31.23;;;13.20;;
43626;SDS011;29217;52.586;13.442;2024-03-08T02:46:06;29.20;;;11.25;;
43626;SDS011;29217;52.586;13.442;2024-03-08T02:48:32;22.50;;;11.02;;
43626;SDS011;29217;52.586;13.442;2024-03-08T02:50:58;24.65;;;10.75;;
43626;SDS011;29217;52.586;13.442;2024-03-08T02:53:23;26.33;;;11.00;;
43626;SDS011;29217;52.586;13.442;2024-03-08T02:55:50;20.35;;;10.20;;
43626;SDS011;29217;52.586;13.442;2024-03-08T02:58:16;22.92;;;10.48;;
43626;SDS011;29217;52.586;13.442;2024-03-08T03:00:42;26.52;;;11.38;;
43626;SDS011;29217;52.586;13.442;2024-03-08T03:03:09;23.25;;;9.27;;
43626;SDS011;29217;52.586;13.442;2024-03-08T03:05:35;24.55;;;10.07;;
43626;SDS011;29217;52.586;13.442;2024-03-08T03:08:01;25.17;;;10.55;;
43626;SDS011;29217;52.586;13.442;2024-03-08T03:10:33;22.77;;;9.57;;
43626;SDS011;29217;52.586;13.442;2024-03-08T03:12:59;33.25;;;11.38;;
43626;SDS011;29217;52.586;13.442;2024-03-08T03:15:25;24.48;;;11.98;;
43626;SDS011;29217;52.586;13.442;2024-03-08T03:17:51;25.15;;;13.07;;
43626;SDS011;29217;52.586;13.442;2024-03-08T03:20:17;31.20;;;11.73;;
43626;SDS011;29217;52.586;13.442;2024-03-08T03:22:57;31.65;;;13.13;;
43626;SDS011;29217;52.586;13.442;2024-03-08T03:25:26;33.75;;;13.20;;
43626;SDS011;29217;52.586;13.442;2024-03-08T03:27:57;32.35;;;11.90;;
43626;SDS011;29217;52.586;13.442;2024-03-08T03:30:24;18.23;;;9.07;;
43626;SDS011;29217;52.586;13.442;2024-03-08T03:32:51;25.17;;;11.88;;
43626;SDS011;29217;52.586;13.442;2024-03-08T03:35:18;20.02;;;9.23;;
43626;SDS011;29217;52.586;13.442;2024-03-08T03:37:45;21.50;;;10.88;;
43626;SDS011;29217;52.586;13.442;2024-03-08T03:40:26;19.17;;;9.82;;
43626;SDS011;29217;52.586;13.442;2024-03-08T03:42:52;22.35;;;10.55;;
43626;SDS011;29217;52.586;13.442;2024-03-08T03:45:18;27.95;;;10.48;;
43626;SDS011;29217;52.586;13.442;2024-03-08T03:47:45;21.40;;;10.45;;
43626;SDS011;29217;52.586;13.442;2024-03-08T03:50:11;17.42;;;8.07;;
43626;SDS011;29217;52.586;13.442;2024-03-08T03:52:37;31.30;;;12.05;;
43626;SDS011;29217;52.586;13.442;2024-03-08T03:55:03;24.70;;;10.45;;
43626;SDS011;29217;52.586;13.442;2024-03-08T03:57:30;20.50;;;9.88;;
43626;SDS011;29217;52.586;13.442;2024-03-08T03:59:56;19.42;;;10.00;;
43626;SDS011;29217;52.586;13.442;2024-03-08T04:02:23;20.83;;;9.25;;
43626;SDS011;29217;52.586;13.442;2024-03-08T04:04:51;24.35;;;10.95;;
43626;SDS011;29217;52.586;13.442;2024-03-08T04:07:17;25.95;;;10.63;;
43626;SDS011;29217;52.586;13.442;2024-03-08T04:09:43;25.98;;;10.80;;
43626;SDS011;29217;52.586;13.442;2024-03-08T04:12:09;29.77;;;10.32;;
43626;SDS011;29217;52.586;13.442;2024-03-08T04:14:35;25.27;;;11.90;;
43626;SDS011;29217;52.586;13.442;2024-03-08T04:17:01;27.63;;;10.63;;
43626;SDS011;29217;52.586;13.442;2024-03-08T04:19:27;26.48;;;10.32;;
43626;SDS011;29217;52.586;13.442;2024-03-08T04:21:54;24.65;;;10.82;;
43626;SDS011;29217;52.586;13.442;2024-03-08T04:24:20;19.42;;;8.70;;
43626;SDS011;29217;52.586;13.442;2024-03-08T04:26:46;21.20;;;10.02;;
43626;SDS011;29217;52.586;13.442;2024-03-08T04:29:12;23.65;;;11.07;;
43626;SDS011;29217;52.586;13.442;2024-03-08T04:31:39;18.95;;;9.40;;
43626;SDS011;29217;52.586;13.442;2024-03-08T04:34:05;24.48;;;11.43;;
43626;SDS011;29217;52.586;13.442;2024-03-08T04:36:31;30.85;;;11.15;;
43626;SDS011;29217;52.586;13.442;2024-03-08T04:38:59;22.42;;;10.38;;
43626;SDS011;29217;52.586;13.442;2024-03-08T04:41:25;23.27;;;9.43;;
43626;SDS011;29217;52.586;13.442;2024-03-08T04:43:51;24.50;;;11.07;;
43626;SDS011;29217;52.586;13.442;2024-03-08T04:46:17;29.13;;;11.18;;
43626;SDS011;29217;52.586;13.442;2024-03-08T04:48:44;22.23;;;10.15;;
43626;SDS011;29217;52.586;13.442;2024-03-08T04:51:10;19.65;;;10.02;;
43626;SDS011;29217;52.586;13.442;2024-03-08T04:53:36;24.15;;;10.10;;
43626;SDS011;29217;52.586;13.442;2024-03-08T04:56:02;20.17;;;9.27;;
43626;SDS011;29217;52.586;13.442;2024-03-08T04:58:32;26.35;;;10.75;;
43626;SDS011;29217;52.586;13.442;2024-03-08T05:01:00;24.48;;;10.30;;
43626;SDS011;29217;52.586;13.442;2024-03-08T05:03:26;21.02;;;8.98;;
43626;SDS011;29217;52.586;13.442;2024-03-08T05:05:52;23.70;;;9.85;;
43626;SDS011;29217;52.586;13.442;2024-03-08T05:08:18;22.17;;;9.65;;
43626;SDS011;29217;52.586;13.442;2024-03-08T05:10:44;25.05;;;9.93;;
43626;SDS011;29217;52.586;13.442;2024-03-08T05:13:11;23.75;;;10.32;;
43626;SDS011;29217;52.586;13.442;2024-03-08T05:15:38;24.90;;;9.32;;
43626;SDS011;29217;52.586;13.442;2024-03-08T05:18:04;18.15;;;9.77;;
43626;SDS011;29217;52.586;13.442;2024-03-08T05:20:30;25.15;;;10.05;;
43626;SDS011;29217;52.586;13.442;2024-03-08T05:22:56;25.42;;;10.18;;
43626;SDS011;29217;52.586;13.442;2024-03-08T05:25:25;23.27;;;8.80;;
43626;SDS011;29217;52.586;13.442;2024-03-08T05:27:51;17.08;;;9.00;;
43626;SDS011;29217;52.586;13.442;2024-03-08T05:30:17;22.75;;;9.68;;
43626;SDS011;29217;52.586;13.442;2024-03-08T05:32:43;29.05;;;10.88;;
43626;SDS011;29217;52.586;13.442;2024-03-08T05:35:10;25.58;;;10.43;;
43626;SDS011;29217;52.586;13.442;2024-03-08T05:37:37;25.17;;;10.05;;
43626;SDS011;29217;52.586;13.442;2024-03-08T05:40:04;21.25;;;9.95;;
43626;SDS011;29217;52.586;13.442;2024-03-08T05:42:34;26.65;;;10.50;;
43626;SDS011;29217;52.586;13.442;2024-03-08T05:45:00;28.33;;;11.25;;
43626;SDS011;29217;52.586;13.442;2024-03-08T05:47:26;25.58;;;10.27;;
43626;SDS011;29217;52.586;13.442;2024-03-08T05:49:52;28.02;;;10.65;;
43626;SDS011;29217;52.586;13.442;2024-03-08T05:52:18;21.75;;;9.63;;
43626;SDS011;29217;52.586;13.442;2024-03-08T05:54:44;25.77;;;10.90;;
43626;SDS011;29217;52.586;13.442;2024-03-08T05:57:11;25.70;;;10.82;;
43626;SDS011;29217;52.586;13.442;2024-03-08T05:59:39;22.70;;;10.45;;
43626;SDS011;29217;52.586;13.442;2024-03-08T06:02:05;22.73;;;9.25;;
43626;SDS011;29217;52.586;13.442;2024-03-08T06:04:31;19.25;;;9.63;;
43626;SDS011;29217;52.586;13.442;2024-03-08T06:06:57;20.00;;;10.20;;
43626;SDS011;29217;52.586;13.442;2024-03-08T06:09:23;27.55;;;12.05;;
43626;SDS011;29217;52.586;13.442;2024-03-08T06:11:49;29.38;;;11.88;;
43626;SDS011;29217;52.586;13.442;2024-03-08T06:14:15;29.85;;;11.90;;
43626;SDS011;29217;52.586;13.442;2024-03-08T06:16:45;30.98;;;10.60;;
43626;SDS011;29217;52.586;13.442;2024-03-08T06:19:11;26.00;;;11.13;;
43626;SDS011;29217;52.586;13.442;2024-03-08T06:21:37;24.08;;;11.13;;
43626;SDS011;29217;52.586;13.442;2024-03-08T06:24:03;25.92;;;12.40;;
43626;SDS011;29217;52.586;13.442;2024-03-08T06:26:29;28.85;;;11.27;;
43626;SDS011;29217;52.586;13.442;2024-03-08T06:28:56;27.10;;;11.27;;
43626;SDS011;29217;52.586;13.442;2024-03-08T06:31:22;22.63;;;10.82;;
43626;SDS011;29217;52.586;13.442;2024-03-08T06:33:48;25.63;;;11.57;;
43626;SDS011;29217;52.586;13.442;2024-03-08T06:36:17;26.67;;;12.70;;
43626;SDS011;29217;52.586;13.442;2024-03-08T06:38:46;28.40;;;11.70;;
43626;SDS011;29217;52.586;13.442;2024-03-08T06:41:12;28.02;;;12.88;;
43626;SDS011;29217;52.586;13.442;2024-03-08T06:43:40;29.52;;;11.82;;
43626;SDS011;29217;52.586;13.442;2024-03-08T06:46:06;28.60;;;11.45;;
43626;SDS011;29217;52.586;13.442;2024-03-08T06:48:32;23.63;;;11.40;;
43626;SDS011;29217;52.586;13.442;2024-03-08T06:50:58;28.02;;;11.30;;
43626;SDS011;29217;52.586;13.442;2024-03-08T06:53:24;28.58;;;11.68;;
43626;SDS011;29217;52.586;13.442;2024-03-08T06:55:50;21.13;;;11.02;;
43626;SDS011;29217;52.586;13.442;2024-03-08T06:58:16;29.48;;;13.20;;
43626;SDS011;29217;52.586;13.442;2024-03-08T07:00:42;29.55;;;12.65;;
43626;SDS011;29217;52.586;13.442;2024-03-08T07:03:09;31.30;;;13.77;;
43626;SDS011;29217;52.586;13.442;2024-03-08T07:05:37;36.72;;;13.95;;
43626;SDS011;29217;52.586;13.442;2024-03-08T07:08:05;40.67;;;13.35;;
43626;SDS011;29217;52.586;13.442;2024-03-08T07:10:31;34.47;;;13.38;;
43626;SDS011;29217;52.586;13.442;2024-03-08T07:12:57;32.17;;;12.57;;
43626;SDS011;29217;52.586;13.442;2024-03-08T07:15:23;27.13;;;12.85;;
43626;SDS011;29217;52.586;13.442;2024-03-08T07:17:50;35.17;;;13.35;;
43626;SDS011;29217;52.586;13.442;2024-03-08T07:20:17;33.50;;;13.00;;
43626;SDS011;29217;52.586;13.442;2024-03-08T07:22:44;34.78;;;14.40;;
43626;SDS011;29217;52.586;13.442;2024-03-08T07:25:12;30.17;;;12.38;;
43626;SDS011;29217;52.586;13.442;2024-03-08T07:27:49;34.22;;;14.23;;
43626;SDS011;29217;52.586;13.442;2024-03-08T07:30:16;32.00;;;12.63;;
43626;SDS011;29217;52.586;13.442;2024-03-08T07:33:02;35.00;;;13.52;;
43626;SDS011;29217;52.586;13.442;2024-03-08T07:35:29;31.52;;;10.77;;
43626;SDS011;29217;52.586;13.442;2024-03-08T07:37:56;35.67;;;14.32;;
43626;SDS011;29217;52.586;13.442;2024-03-08T07:40:22;35.95;;;14.32;;
43626;SDS011;29217;52.586;13.442;2024-03-08T07:42:49;34.25;;;13.38;;
43626;SDS011;29217;52.586;13.442;2024-03-08T07:45:15;28.52;;;11.93;;
43626;SDS011;29217;52.586;13.442;2024-03-08T07:47:41;34.08;;;13.82;;
43626;SDS011;29217;52.586;13.442;2024-03-08T07:50:07;30.85;;;13.02;;
43626;SDS011;29217;52.586;13.442;2024-03-08T07:52:36;35.55;;;13.82;;
43626;SDS011;29217;52.586;13.442;2024-03-08T07:55:02;22.83;;;11.75;;
43626;SDS011;29217;52.586;13.442;2024-03-08T07:57:29;38.65;;;13.90;;
43626;SDS011;29217;52.586;13.442;2024-03-08T07:59:55;39.45;;;13.98;;
43626;SDS011;29217;52.586;13.442;2024-03-08T08:02:21;28.05;;;10.70;;
43626;SDS011;29217;52.586;13.442;2024-03-08T08:04:47;24.85;;;12.90;;
43626;SDS011;29217;52.586;13.442;2024-03-08T08:07:13;28.70;;;11.88;;
43626;SDS011;29217;52.586;13.442;2024-03-08T08:09:39;25.60;;;11.70;;
43626;SDS011;29217;52.586;13.442;2024-03-08T08:12:07;32.08;;;11.43;;
43626;SDS011;29217;52.586;13.442;2024-03-08T08:14:37;30.92;;;12.80;;
43626;SDS011;29217;52.586;13.442;2024-03-08T08:17:04;26.70;;;11.10;;
43626;SDS011;29217;52.586;13.442;2024-03-08T08:19:30;29.05;;;10.80;;
43626;SDS011;29217;52.586;13.442;2024-03-08T08:21:57;27.45;;;10.75;;
43626;SDS011;29217;52.586;13.442;2024-03-08T08:24:23;24.83;;;10.20;;
43626;SDS011;29217;52.586;13.442;2024-03-08T08:26:49;31.42;;;13.13;;
43626;SDS011;29217;52.586;13.442;2024-03-08T08:29:15;27.15;;;11.45;;
43626;SDS011;29217;52.586;13.442;2024-03-08T08:31:41;25.83;;;11.73;;
43626;SDS011;29217;52.586;13.442;2024-03-08T08:34:09;32.83;;;12.32;;
43626;SDS011;29217;52.586;13.442;2024-03-08T08:36:36;29.02;;;11.43;;
43626;SDS011;29217;52.586;13.442;2024-03-08T08:39:02;28.38;;;10.35;;
43626;SDS011;29217;52.586;13.442;2024-03-08T08:41:28;29.17;;;11.43;;
43626;SDS011;29217;52.586;13.442;2024-03-08T08:43:54;29.05;;;12.02;;
43626;SDS011;29217;52.586;13.442;2024-03-08T08:46:20;28.92;;;10.85;;
43626;SDS011;29217;52.586;13.442;2024-03-08T08:48:46;24.17;;;11.35;;
43626;SDS011;29217;52.586;13.442;2024-03-08T08:51:12;31.13;;;11.13;;
43626;SDS011;29217;52.586;13.442;2024-03-08T08:53:39;27.85;;;11.38;;
43626;SDS011;29217;52.586;13.442;2024-03-08T08:56:08;33.78;;;11.90;;
43626;SDS011;29217;52.586;13.442;2024-03-08T08:58:34;31.67;;;11.63;;
43626;SDS011;29217;52.586;13.442;2024-03-08T09:01:00;20.23;;;9.20;;
43626;SDS011;29217;52.586;13.442;2024-03-08T09:03:26;23.20;;;9.45;;
43626;SDS011;29217;52.586;13.442;2024-03-08T09:05:54;24.88;;;10.43;;
43626;SDS011;29217;52.586;13.442;2024-03-08T09:08:21;30.05;;;10.75;;
43626;SDS011;29217;52.586;13.442;2024-03-08T09:10:48;22.45;;;9.82;;
43626;SDS011;29217;52.586;13.442;2024-03-08T09:13:14;20.20;;;9.30;;
43626;SDS011;29217;52.586;13.442;2024-03-08T09:15:41;25.33;;;10.27;;
43626;SDS011;29217;52.586;13.442;2024-03-08T09:18:08;25.13;;;10.75;;
43626;SDS011;29217;52.586;13.442;2024-03-08T09:20:34;13.63;;;7.25;;
43626;SDS011;29217;52.586;13.442;2024-03-08T09:23:00;25.52;;;9.27;;
43626;SDS011;29217;52.586;13.442;2024-03-08T09:25:26;25.25;;;10.48;;
43626;SDS011;29217;52.586;13.442;2024-03-08T09:27:53;29.00;;;10.43;;
43626;SDS011;29217;52.586;13.442;2024-03-08T09:30:19;15.48;;;8.07;;
43626;SDS011;29217;52.586;13.442;2024-03-08T09:32:46;23.75;;;9.98;;
43626;SDS011;29217;52.586;13.442;2024-03-08T09:35:12;23.77;;;10.15;;
43626;SDS011;29217;52.586;13.442;2024-03-08T09:37:38;25.98;;;11.13;;
43626;SDS011;29217;52.586;13.442;2024-03-08T09:40:04;20.67;;;9.32;;
43626;SDS011;29217;52.586;13.442;2024-03-08T09:42:34;22.48;;;10.38;;
43626;SDS011;29217;52.586;13.442;2024-03-08T09:45:12;31.00;;;11.30;;
43626;SDS011;29217;52.586;13.442;2024-03-08T09:47:40;25.27;;;9.02;;
43626;SDS011;29217;52.586;13.442;2024-03-08T09:50:09;31.65;;;11.15;;
43626;SDS011;29217;52.586;13.442;2024-03-08T09:52:38;20.15;;;9.13;;
43626;SDS011;29217;52.586;13.442;2024-03-08T09:55:05;26.65;;;11.40;;
43626;SDS011;29217;52.586;13.442;2024-03-08T09:57:32;25.60;;;10.38;;
43626;SDS011;29217;52.586;13.442;2024-03-08T09:59:59;28.55;;;10.55;;
43626;SDS011;29217;52.586;13.442;2024-03-08T10:02:25;23.27;;;10.48;;
43626;SDS011;29217;52.586;13.442;2024-03-08T10:04:51;17.92;;;8.13;;
43626;SDS011;29217;52.586;13.442;2024-03-08T10:07:18;26.17;;;10.75;;
43626;SDS011;29217;52.586;13.442;2024-03-08T10:09:44;23.33;;;10.02;;
43626;SDS011;29217;52.586;13.442;2024-03-08T10:12:17;28.05;;;10.45;;
43626;SDS011;29217;52.586;13.442;2024-03-08T10:14:44;27.90;;;9.52;;
43626;SDS011;29217;52.586;13.442;2024-03-08T10:17:10;24.08;;;10.38;;
43626;SDS011;29217;52.586;13.442;2024-03-08T10:19:36;26.75;;;9.38;;
43626;SDS011;29217;52.586;13.442;2024-03-08T10:22:02;28.88;;;9.85;;
43626;SDS011;29217;52.586;13.442;2024-03-08T10:24:29;22.95;;;8.93;;
43626;SDS011;29217;52.586;13.442;2024-03-08T10:26:58;16.80;;;7.95;;
43626;SDS011;29217;52.586;13.442;2024-03-08T10:29:25;22.60;;;9.10;;
43626;SDS011;29217;52.586;13.442;2024-03-08T10:31:51;18.00;;;7.57;;
43626;SDS011;29217;52.586;13.442;2024-03-08T10:34:17;14.50;;;7.43;;
43626;SDS011;29217;52.586;13.442;2024-03-08T10:36:44;19.63;;;8.40;;
43626;SDS011;29217;52.586;13.442;2024-03-08T10:39:21;21.80;;;8.77;;
43626;SDS011;29217;52.586;13.442;2024-03-08T10:41:51;23.45;;;9.00;;
43626;SDS011;29217;52.586;13.442;2024-03-08T10:49:16;21.55;;;9.20;;
43626;SDS011;29217;52.586;13.442;2024-03-08T10:51:43;24.08;;;9.27;;
43626;SDS011;29217;52.586;13.442;2024-03-08T10:54:10;26.60;;;9.30;;
43626;SDS011;29217;52.586;13.442;2024-03-08T10:56:37;23.25;;;9.10;;
43626;SDS011;29217;52.586;13.442;2024-03-08T10:59:05;16.65;;;8.40;;
43626;SDS011;29217;52.586;13.442;2024-03-08T11:01:31;19.60;;;8.48;;
43626;SDS011;29217;52.586;13.442;2024-03-08T11:03:57;18.65;;;8.90;;
43626;SDS011;29217;52.586;13.442;2024-03-08T11:06:30;15.32;;;8.13;;
43626;SDS011;29217;52.586;13.442;2024-03-08T11:08:56;18.95;;;8.48;;
43626;SDS011;29217;52.586;13.442;2024-03-08T11:13:52;14.93;;;7.35;;
43626;SDS011;29217;52.586;13.442;2024-03-08T11:19:33;19.05;;;7.40;;
43626;SDS011;29217;52.586;13.442;2024-03-08T11:21:40;17.65;;;8.55;;
43626;SDS011;29217;52.586;13.442;2024-03-08T11:24:12;16.20;;;7.15;;
43626;SDS011;29217;52.586;13.442;2024-03-08T11:26:39;18.73;;;7.68;;
43626;SDS011;29217;52.586;13.442;2024-03-08T11:31:50;13.98;;;7.30;;
43626;SDS011;29217;52.586;13.442;2024-03-08T11:34:16;21.25;;;9.38;;
43626;SDS011;29217;52.586;13.442;2024-03-08T11:36:44;19.63;;;8.20;;
43626;SDS011;29217;52.586;13.442;2024-03-08T11:39:13;19.77;;;8.98;;
43626;SDS011;29217;52.586;13.442;2024-03-08T11:41:40;17.35;;;8.15;;
43626;SDS011;29217;52.586;13.442;2024-03-08T11:44:10;19.83;;;8.23;;
43626;SDS011;29217;52.586;13.442;2024-03-08T11:46:41;19.10;;;8.55;;
43626;SDS011;29217;52.586;13.442;2024-03-08T11:49:11;15.07;;;7.30;;
43626;SDS011;29217;52.586;13.442;2024-03-08T11:51:37;20.65;;;8.57;;
43626;SDS011;29217;52.586;13.442;2024-03-08T11:54:03;25.80;;;8.98;;
43626;SDS011;29217;52.586;13.442;2024-03-08T11:56:31;20.50;;;8.68;;
43626;SDS011;29217;52.586;13.442;2024-03-08T11:58:57;19.70;;;8.02;;
43626;SDS011;29217;52.586;13.442;2024-03-08T12:01:24;20.75;;;8.70;;
43626;SDS011;29217;52.586;13.442;2024-03-08T12:03:53;22.60;;;8.90;;
43626;SDS011;29217;52.586;13.442;2024-03-08T12:06:20;20.85;;;9.23;;
43626;SDS011;29217;52.586;13.442;2024-03-08T12:08:46;15.07;;;8.00;;
43626;SDS011;29217;52.586;13.442;2024-03-08T12:11:19;24.70;;;7.85;;
43626;SDS011;29217;52.586;13.442;2024-03-08T12:13:49;17.55;;;7.60;;
43626;SDS011;29217;52.586;13.442;2024-03-08T12:16:16;22.48;;;9.60;;
43626;SDS011;29217;52.586;13.442;2024-03-08T12:18:43;19.67;;;8.80;;
43626;SDS011;29217;52.586;13.442;2024-03-08T12:21:11;22.55;;;9.52;;
43626;SDS011;29217;52.586;13.442;2024-03-08T12:23:39;14.68;;;8.15;;
43626;SDS011;29217;52.586;13.442;2024-03-08T12:26:18;21.13;;;8.93;;
43626;SDS011;29217;52.586;13.442;2024-03-08T12:28:49;15.63;;;7.85;;
43626;SDS011;29217;52.586;13.442;2024-03-08T12:31:18;17.25;;;8.20;;
43626;SDS011;29217;52.586;13.442;2024-03-08T12:33:50;17.75;;;8.35;;
43626;SDS011;29217;52.586;13.442;2024-03-08T12:36:16;16.63;;;7.70;;
43626;SDS011;29217;52.586;13.442;2024-03-08T12:38:46;21.55;;;9.40;;
43626;SDS011;29217;52.586;13.442;2024-03-08T12:41:13;17.30;;;8.50;;
43626;SDS011;29217;52.586;13.442;2024-03-08T12:43:39;21.02;;;8.82;;
43626;SDS011;29217;52.586;13.442;2024-03-08T12:46:06;18.08;;;8.38;;
43626;SDS011;29217;52.586;13.442;2024-03-08T12:48:34;15.55;;;8.57;;
43626;SDS011;29217;52.586;13.442;2024-03-08T12:51:05;20.73;;;8.13;;
43626;SDS011;29217;52.586;13.442;2024-03-08T12:53:33;18.60;;;8.98;;
43626;SDS011;29217;52.586;13.442;2024-03-08T12:56:00;20.77;;;8.07;;
43626;SDS011;29217;52.586;13.442;2024-03-08T12:58:26;20.58;;;8.90;;
43626;SDS011;29217;52.586;13.442;2024-03-08T13:00:52;19.77;;;9.77;;
43626;SDS011;29217;52.586;13.442;2024-03-08T13:03:18;19.52;;;9.10;;
43626;SDS011;29217;52.586;13.442;2024-03-08T13:05:44;18.38;;;9.23;;
43626;SDS011;29217;52.586;13.442;2024-03-08T13:08:10;19.85;;;9.88;;
43626;SDS011;29217;52.586;13.442;2024-03-08T13:10:41;19.13;;;8.95;;
43626;SDS011;29217;52.586;13.442;2024-03-08T13:13:08;24.40;;;10.15;;
43626;SDS011;29217;52.586;13.442;2024-03-08T13:15:35;19.58;;;9.15;;
43626;SDS011;29217;52.586;13.442;2024-03-08T13:18:01;24.38;;;10.25;;
43626;SDS011;29217;52.586;13.442;2024-03-08T13:20:28;18.60;;;8.45;;
43626;SDS011;29217;52.586;13.442;2024-03-08T13:22:55;18.05;;;9.35;;
43626;SDS011;29217;52.586;13.442;2024-03-08T13:25:21;20.65;;;8.95;;
43626;SDS011;29217;52.586;13.442;2024-03-08T13:27:48;20.38;;;8.98;;
43626;SDS011;29217;52.586;13.442;2024-03-08T13:30:14;21.25;;;10.63;;
43626;SDS011;29217;52.586;13.442;2024-03-08T13:32:43;23.13;;;8.98;;
43626;SDS011;29217;52.586;13.442;2024-03-08T13:35:10;18.23;;;8.82;;
43626;SDS011;29217;52.586;13.442;2024-03-08T13:37:39;19.13;;;8.50;;
43626;SDS011;29217;52.586;13.442;2024-03-08T13:40:05;32.70;;;9.63;;
43626;SDS011;29217;52.586;13.442;2024-03-08T13:42:35;17.17;;;7.88;;
43626;SDS011;29217;52.586;13.442;2024-03-08T13:45:03;22.30;;;9.95;;
43626;SDS011;29217;52.586;13.442;2024-03-08T13:47:29;19.10;;;9.00;;
43626;SDS011;29217;52.586;13.442;2024-03-08T13:49:56;23.38;;;9.52;;
43626;SDS011;29217;52.586;13.442;2024-03-08T13:52:22;23.30;;;9.93;;
43626;SDS011;29217;52.586;13.442;2024-03-08T13:54:50;23.63;;;10.60;;
43626;SDS011;29217;52.586;13.442;2024-03-08T13:57:16;19.92;;;8.20;;
43626;SDS011;29217;52.586;13.442;2024-03-08T13:59:43;23.52;;;9.35;;
43626;SDS011;29217;52.586;13.442;2024-03-08T14:02:09;24.15;;;10.10;;
43626;SDS011;29217;52.586;13.442;2024-03-08T14:04:38;20.73;;;10.18;;
43626;SDS011;29217;52.586;13.442;2024-03-08T14:07:06;19.20;;;8.98;;
43626;SDS011;29217;52.586;13.442;2024-03-08T14:09:33;22.27;;;9.25;;
43626;SDS011;29217;52.586;13.442;2024-03-08T14:12:02;20.10;;;8.85;;
43626;SDS011;29217;52.586;13.442;2024-03-08T14:14:32;21.90;;;9.60;;
43626;SDS011;29217;52.586;13.442;2024-03-08T14:17:00;18.83;;;9.80;;
43626;SDS011;29217;52.586;13.442;2024-03-08T14:19:27;23.20;;;10.45;;
43626;SDS011;29217;52.586;13.442;2024-03-08T14:21:53;19.30;;;8.65;;
43626;SDS011;29217;52.586;13.442;2024-03-08T14:24:19;15.70;;;7.90;;
43626;SDS011;29217;52.586;13.442;2024-03-08T14:26:45;24.02;;;9.25;;